Time;durP1;ratioP1;P1;durP2;ratioP2;P2;SDS_P1;SDS_P2;PMS_P1;PMS_P2;Temp;Humidity;BMP_temperature;BMP_pressure;BME280_temperature;BME280_humidity;BME280_pressure;Samples;Min_cycle;Max_cycle;Signal;HPM_P1;HPM_P2
2023/11/19 00:00:20;;;;;;;18.00;13.18;;;;;;;-145.63;47.66;38910.81;4990591;28;20227;-69
2023/11/19 00:02:47;;;;;;;23.73;13.27;;;;;;;-145.63;48.34;39106.38;5002090;28;20034;-68
2023/11/19 00:05:13;;;;;;;22.42;14.30;;;;;;;-145.63;47.95;39125.94;5006559;28;20034;-66
2023/11/19 00:07:43;;;;;;;22.27;14.27;;;;;;;-145.63;48.60;39120.06;4994459;28;20026;-68
2023/11/19 00:10:10;;;;;;;22.77;13.65;;;;;;;-145.63;48.12;39133.75;4993989;28;20030;-67
2023/11/19 00:12:41;;;;;;;18.90;13.07;;;;;;;-145.63;48.36;39114.22;5003375;28;20326;-67
2023/11/19 00:15:13;;;;;;;22.10;14.23;;;;;;;-145.63;48.66;39163.09;4994348;28;20034;-67
2023/11/19 00:17:47;;;;;;;21.95;13.45;;;;;;;-145.63;48.25;39122.03;5005699;28;20195;-68
2023/11/19 00:20:18;;;;;;;23.40;13.88;;;;;;;-145.63;48.27;39145.50;4988733;28;20050;-67
2023/11/19 00:22:46;;;;;;;20.50;12.95;;;;;;;-145.63;48.27;39139.63;5001866;28;20031;-67
2023/11/19 00:25:11;;;;;;;28.27;13.30;;;;;;;-145.63;48.08;39129.84;5005477;28;20153;-67
2023/11/19 00:27:37;;;;;;;19.83;12.82;;;;;;;-145.63;48.14;39127.91;5002697;28;20041;-67
2023/11/19 00:30:05;;;;;;;19.98;13.35;;;;;;;-145.63;48.30;39131.81;4984990;28;20026;-67
2023/11/19 00:32:33;;;;;;;19.58;13.13;;;;;;;-145.63;48.09;39131.81;5003503;28;20027;-67
2023/11/19 00:34:58;;;;;;;18.00;12.82;;;;;;;-145.63;48.04;39157.22;5005443;28;20034;-68
2023/11/19 00:37:24;;;;;;;22.20;13.18;;;;;;;-145.63;48.06;39125.94;5014434;28;20028;-66
2023/11/19 00:39:51;;;;;;;19.92;12.90;;;;;;;-145.63;47.73;39086.81;5019533;28;20329;-67
2023/11/19 00:42:18;;;;;;;20.27;13.35;;;;;;;-145.63;47.64;39145.50;5005340;28;20022;-66
2023/11/19 00:44:44;;;;;;;19.83;13.98;;;;;;;-145.63;48.27;39135.72;4984890;28;20319;-67
2023/11/19 00:47:09;;;;;;;21.83;13.52;;;;;;;-145.63;48.40;39112.25;5000996;28;20377;-68
2023/11/19 00:49:35;;;;;;;19.42;13.27;;;;;;;-145.63;48.12;39116.16;5005428;28;20037;-67
2023/11/19 00:52:02;;;;;;;19.58;13.20;;;;;;;-145.63;48.31;39129.84;5004979;28;20030;-68
2023/11/19 00:54:27;;;;;;;21.17;12.90;;;;;;;-145.63;48.16;39139.63;5005527;28;20133;-68
2023/11/19 00:56:54;;;;;;;20.33;12.98;;;;;;;-145.63;47.99;39145.50;5005075;28;20022;-67
2023/11/19 00:59:19;;;;;;;18.27;12.43;;;;;;;-145.63;48.60;39118.13;4989033;28;20098;-67
2023/11/19 01:01:47;;;;;;;23.80;14.30;;;;;;;-145.63;48.25;39129.84;4997478;28;20085;-66
2023/11/19 01:04:15;;;;;;;18.88;12.63;;;;;;;-145.63;48.69;39114.22;4996285;28;20031;-68
2023/11/19 01:06:42;;;;;;;22.17;14.52;;;;;;;-145.63;48.96;39106.38;4997885;28;20172;-69
2023/11/19 01:09:09;;;;;;;21.88;13.60;;;;;;;-145.63;48.37;39125.94;5005082;28;20030;-68
2023/11/19 01:11:35;;;;;;;18.67;13.63;;;;;;;-145.63;48.55;39116.16;4986526;28;20350;-68
2023/11/19 01:14:01;;;;;;;24.42;14.32;;;;;;;-145.63;48.85;39122.03;4998981;28;20106;-68
2023/11/19 01:16:27;;;;;;;21.40;13.40;;;;;;;-145.63;49.15;39143.53;5003661;28;20124;-68
2023/11/19 01:18:52;;;;;;;26.50;14.35;;;;;;;-145.63;48.73;39071.19;4999880;28;20057;-68
2023/11/19 01:21:18;;;;;;;25.20;14.30;;;;;;;-145.63;49.45;39118.13;4985302;28;20027;-68
2023/11/19 01:23:45;;;;;;;19.95;13.30;;;;;;;-145.63;49.08;39125.94;4988843;28;20053;-69
2023/11/19 01:26:14;;;;;;;22.08;14.27;;;;;;;-145.63;49.57;39120.06;4997419;28;20094;-68
2023/11/19 01:28:42;;;;;;;22.73;13.50;;;;;;;-145.63;49.00;39127.91;4993764;28;20063;-67
2023/11/19 01:31:08;;;;;;;22.63;14.43;;;;;;;-145.63;48.82;39116.16;4990644;28;20022;-67
2023/11/19 01:33:36;;;;;;;22.42;14.43;;;;;;;-145.63;49.04;39122.03;5004613;28;20057;-67
2023/11/19 01:36:02;;;;;;;23.15;14.50;;;;;;;-145.63;49.18;39133.75;5003343;28;20026;-67
2023/11/19 01:38:28;;;;;;;22.23;14.27;;;;;;;-145.63;49.42;39106.38;4987159;28;20029;-66
2023/11/19 01:40:57;;;;;;;21.42;14.10;;;;;;;-145.63;49.00;39108.34;4997330;28;20045;-67
2023/11/19 01:43:36;;;;;;;21.45;14.60;;;;;;;-145.63;48.87;39112.25;4995818;28;20049;-67
2023/11/19 01:46:04;;;;;;;22.65;14.15;;;;;;;-145.63;49.34;39094.66;4990194;28;20100;-66
2023/11/19 01:48:32;;;;;;;26.05;15.52;;;;;;;-145.63;49.62;39116.16;5002981;28;20015;-67
2023/11/19 01:50:58;;;;;;;24.40;16.10;;;;;;;-145.63;49.02;39112.25;5004103;28;20025;-66
2023/11/19 01:53:25;;;;;;;24.27;16.50;;;;;;;-145.63;49.40;39090.75;5004114;28;20295;-67
2023/11/19 01:55:52;;;;;;;24.75;15.52;;;;;;;-145.63;49.39;39094.66;4992586;28;20027;-68
2023/11/19 01:58:19;;;;;;;23.77;15.05;;;;;;;-145.63;49.47;39102.47;4971685;28;20042;-68
2023/11/19 02:00:45;;;;;;;23.95;14.68;;;;;;;-145.63;49.17;39116.16;4987786;28;20037;-66
2023/11/19 02:03:12;;;;;;;26.02;14.57;;;;;;;-145.63;50.15;39122.03;5003887;28;20022;-67
2023/11/19 02:05:39;;;;;;;24.08;14.05;;;;;;;-145.63;49.99;39135.72;4986051;28;20026;-67
2023/11/19 02:08:05;;;;;;;23.70;14.60;;;;;;;-145.63;49.56;39104.44;4998125;28;20030;-67
2023/11/19 02:10:31;;;;;;;22.50;14.70;;;;;;;-145.63;49.86;39088.78;4994870;28;20029;-68
2023/11/19 02:12:58;;;;;;;24.60;15.23;;;;;;;-145.63;50.34;39092.69;4989238;28;20066;-68
2023/11/19 02:15:24;;;;;;;23.85;15.23;;;;;;;-145.63;49.61;39094.66;5002399;28;20064;-67
2023/11/19 02:17:51;;;;;;;20.63;14.05;;;;;;;-145.63;50.28;39112.25;5004209;28;20094;-67
2023/11/19 02:20:19;;;;;;;21.25;14.15;;;;;;;-145.63;50.45;39086.81;4988331;28;20034;-67
2023/11/19 02:22:47;;;;;;;26.92;15.15;;;;;;;-145.63;50.20;39016.44;4994325;28;20034;-68
2023/11/19 02:25:32;;;;;;;24.02;15.57;;;;;;;-145.63;49.65;39086.81;4974878;28;20045;-67
2023/11/19 02:28:01;;;;;;;23.58;15.25;;;;;;;-145.63;49.77;39116.16;4999016;28;20041;-67
2023/11/19 02:30:28;;;;;;;22.90;14.75;;;;;;;-145.63;50.00;39084.88;4983226;28;20351;-66
2023/11/19 02:32:58;;;;;;;21.58;15.57;;;;;;;-145.63;50.34;39090.75;4983919;28;20172;-67
2023/11/19 02:35:27;;;;;;;26.38;16.60;;;;;;;-145.63;50.59;39118.13;5000280;28;20034;-67
2023/11/19 02:37:56;;;;;;;23.50;17.17;;;;;;;-145.63;50.75;39079.00;4990207;28;20222;-67
2023/11/19 02:40:24;;;;;;;25.38;15.68;;;;;;;-145.63;50.49;39084.88;4990658;28;20302;-67
2023/11/19 02:42:51;;;;;;;23.20;16.15;;;;;;;-145.63;50.95;38949.94;4982645;28;20507;-68
2023/11/19 02:45:17;;;;;;;24.50;16.55;;;;;;;-145.63;50.76;39102.47;4983928;28;20086;-67
2023/11/19 02:47:44;;;;;;;26.17;16.25;;;;;;;-145.63;50.53;39106.38;5002322;28;20041;-68
2023/11/19 02:50:16;;;;;;;29.33;17.45;;;;;;;-145.63;50.54;39075.09;4982522;28;20319;-67
2023/11/19 02:52:42;;;;;;;;;;;;;;;-145.63;50.91;39096.59;5003723;28;20106;-67
2023/11/19 02:55:19;;;;;;;27.65;17.67;;;;;;;-145.63;50.42;39084.88;5003182;28;19909;-67
2023/11/19 02:57:48;;;;;;;25.75;17.48;;;;;;;-145.63;51.37;39069.22;4999478;28;20029;-67
2023/11/19 03:00:16;;;;;;;28.63;18.42;;;;;;;-145.63;51.31;39090.75;4999414;28;20073;-67
2023/11/19 03:02:53;;;;;;;28.30;18.50;;;;;;;-145.63;51.16;39096.59;4984933;28;20030;-66
2023/11/19 03:05:19;;;;;;;26.98;18.98;;;;;;;-145.63;51.39;39079.00;4998864;28;20101;-66
2023/11/19 03:07:45;;;;;;;30.40;20.05;;;;;;;-145.63;51.16;39086.81;4992492;28;20365;-67
2023/11/19 03:10:14;;;;;;;29.40;19.08;;;;;;;-145.63;51.20;39077.06;4988522;28;20038;-68
2023/11/19 03:12:41;;;;;;;27.65;18.73;;;;;;;-145.63;50.94;39086.81;5000232;28;20030;-68
2023/11/19 03:15:09;;;;;;;25.60;17.92;;;;;;;-145.63;50.49;39104.44;4991495;28;20023;-67
2023/11/19 03:17:39;;;;;;;28.40;18.83;;;;;;;-145.63;50.58;39129.84;5002870;28;20029;-68
2023/11/19 03:20:09;;;;;;;30.98;20.20;;;;;;;-145.63;50.32;39098.56;4988521;28;20133;-68
2023/11/19 03:22:36;;;;;;;30.65;20.23;;;;;;;-145.63;50.47;39184.59;4992736;28;20022;-68
2023/11/19 03:25:02;;;;;;;31.55;19.65;;;;;;;-145.63;50.38;39094.66;4992570;28;20034;-66
2023/11/19 03:27:30;;;;;;;28.17;19.48;;;;;;;-145.63;50.32;39088.78;5001147;28;20045;-67
2023/11/19 03:29:55;;;;;;;34.08;20.98;;;;;;;-145.63;50.38;39125.94;4982908;28;20049;-66
2023/11/19 03:32:21;;;;;;;27.88;20.90;;;;;;;-145.63;50.37;39100.50;4997498;28;20026;-67
2023/11/19 03:34:47;;;;;;;27.27;19.55;;;;;;;-145.63;49.97;39147.44;4988822;28;20038;-67
2023/11/19 03:37:16;;;;;;;31.20;19.88;;;;;;;-145.63;50.15;39125.94;4993371;28;20696;-67
2023/11/19 03:39:42;;;;;;;28.65;19.73;;;;;;;-145.63;49.91;39106.38;5000583;28;20184;-66
2023/11/19 03:42:07;;;;;;;28.58;19.35;;;;;;;-145.63;49.85;39116.16;5005030;28;20029;-66
2023/11/19 03:44:33;;;;;;;30.38;19.65;;;;;;;-145.63;49.47;39106.38;4997679;28;20242;-67
2023/11/19 03:46:59;;;;;;;30.33;19.48;;;;;;;-145.63;49.90;39122.03;4993067;28;20046;-66
2023/11/19 03:49:25;;;;;;;30.15;18.90;;;;;;;-145.63;49.53;39123.97;4997215;28;20081;-67
2023/11/19 03:51:50;;;;;;;25.83;18.70;;;;;;;-145.63;49.75;39116.16;5006222;28;20027;-69
2023/11/19 03:54:16;;;;;;;27.05;19.42;;;;;;;-145.63;49.25;39122.03;5006121;28;20034;-68
2023/11/19 03:56:42;;;;;;;29.40;20.85;;;;;;;-145.63;49.70;39108.34;5006149;28;20033;-67
2023/11/19 03:59:09;;;;;;;38.42;22.48;;;;;;;-145.63;50.41;39098.56;4992899;28;20031;-68
2023/11/19 04:01:37;;;;;;;45.72;25.52;;;;;;;-145.63;50.35;39114.22;4995593;28;20065;-66
2023/11/19 04:04:03;;;;;;;36.42;25.08;;;;;;;-145.63;50.07;39098.56;5001490;28;20081;-67
2023/11/19 04:06:29;;;;;;;36.67;25.85;;;;;;;-145.63;50.74;39075.09;4986899;28;20045;-70
2023/11/19 04:08:55;;;;;;;39.53;26.80;;;;;;;-145.63;51.14;39098.56;5005912;28;20207;-67
2023/11/19 04:11:21;;;;;;;45.65;29.55;;;;;;;-145.63;51.09;39061.41;4989867;28;20053;-68
2023/11/19 04:13:47;;;;;;;47.67;30.02;;;;;;;-145.63;52.03;39061.41;5001739;28;20034;-68
2023/11/19 04:16:14;;;;;;;46.20;29.30;;;;;;;-145.63;52.20;39032.06;5000378;28;20032;-70
2023/11/19 04:18:41;;;;;;;41.53;28.58;;;;;;;-145.63;52.61;39061.41;5002744;28;20030;-68
2023/11/19 04:21:07;;;;;;;42.42;29.30;;;;;;;-145.63;51.20;39055.53;5005853;28;20067;-67
2023/11/19 04:23:33;;;;;;;40.58;29.23;;;;;;;-145.63;52.26;39104.44;4993933;28;20034;-69
2023/11/19 04:26:02;;;;;;;48.05;30.83;;;;;;;-145.63;51.43;38875.63;4992746;28;20098;-68
2023/11/19 04:28:28;;;;;;;43.35;28.95;;;;;;;-145.63;51.80;39084.88;4993830;28;20026;-68
2023/11/19 04:30:54;;;;;;;42.92;28.48;;;;;;;-145.63;51.38;39051.63;5005565;28;20026;-67
2023/11/19 04:33:20;;;;;;;42.20;29.75;;;;;;;-145.63;51.26;39086.81;5005532;28;20300;-66
2023/11/19 04:35:46;;;;;;;42.95;28.63;;;;;;;-145.63;51.67;39084.88;4987207;28;20116;-66
2023/11/19 04:38:12;;;;;;;37.65;26.25;;;;;;;-145.63;52.00;39092.69;4997827;28;20172;-65
2023/11/19 04:40:37;;;;;;;42.17;26.90;;;;;;;-145.63;52.25;39077.06;4996606;28;20023;-66
2023/11/19 04:43:03;;;;;;;38.40;26.08;;;;;;;-145.63;51.46;39071.19;4989984;28;20060;-67
2023/11/19 04:45:29;;;;;;;30.90;23.15;;;;;;;-145.63;51.23;39088.78;5004121;28;20027;-68
2023/11/19 04:47:54;;;;;;;39.70;26.63;;;;;;;-145.63;52.42;39059.44;4986449;28;20027;-68
2023/11/19 04:50:20;;;;;;;39.97;26.90;;;;;;;-145.63;52.19;39079.00;5002361;28;20026;-67
2023/11/19 04:52:46;;;;;;;40.17;27.55;;;;;;;-145.63;52.13;39073.13;5004803;28;20050;-67
2023/11/19 04:55:14;;;;;;;40.42;27.92;;;;;;;-145.63;51.86;39071.19;4998698;28;20054;-67
2023/11/19 04:57:40;;;;;;;36.90;24.90;;;;;;;-145.63;53.21;39075.09;4985338;28;20026;-66
2023/11/19 05:00:07;;;;;;;40.67;25.42;;;;;;;-145.63;52.32;39059.44;5005271;28;20026;-67
2023/11/19 05:02:34;;;;;;;48.17;25.45;;;;;;;-145.63;52.86;39077.06;4988912;28;20331;-65
2023/11/19 05:05:03;;;;;;;37.00;25.02;;;;;;;-145.63;52.43;39067.28;4996752;28;20038;-67
2023/11/19 05:07:29;;;;;;;39.28;24.45;;;;;;;-145.63;52.88;39086.81;4997296;28;20275;-68
2023/11/19 05:09:55;;;;;;;38.75;25.75;;;;;;;-145.63;52.42;39090.75;4988170;28;20033;-68
2023/11/19 05:12:20;;;;;;;35.50;25.55;;;;;;;-145.63;51.78;39075.09;5005091;28;20072;-67
2023/11/19 05:14:49;;;;;;;36.65;23.00;;;;;;;-145.63;52.01;39098.56;4988603;28;20053;-68
2023/11/19 05:17:18;;;;;;;38.50;25.35;;;;;;;-145.63;51.79;39067.28;4992749;28;20034;-69
2023/11/19 05:19:43;;;;;;;35.45;23.50;;;;;;;-145.63;51.75;39088.78;4988655;28;20050;-69
2023/11/19 05:22:09;;;;;;;29.95;21.95;;;;;;;-145.63;51.42;39084.88;4988413;28;20049;-67
2023/11/19 05:24:35;;;;;;;31.15;21.45;;;;;;;-145.63;53.11;39079.00;4973656;28;20053;-68
2023/11/19 05:27:02;;;;;;;30.10;22.58;;;;;;;-145.63;52.44;39032.06;4996031;28;20053;-67
2023/11/19 05:29:28;;;;;;;32.38;21.40;;;;;;;-145.63;52.81;39049.66;4997551;28;20093;-67
2023/11/19 05:31:55;;;;;;;34.67;23.05;;;;;;;-145.63;53.18;39106.38;4995194;28;20023;-67
2023/11/19 05:34:21;;;;;;;32.08;21.98;;;;;;;-145.63;52.68;39086.81;4991269;28;20042;-67
2023/11/19 05:36:47;;;;;;;30.13;22.05;;;;;;;-145.63;53.00;39067.28;5001442;28;20206;-68
2023/11/19 05:39:13;;;;;;;31.63;22.38;;;;;;;-145.63;53.50;39065.31;4984624;28;20050;-67
2023/11/19 05:41:38;;;;;;;32.50;24.05;;;;;;;-145.63;54.25;39051.63;5001433;28;20291;-66
2023/11/19 05:44:04;;;;;;;38.75;24.33;;;;;;;-145.63;53.86;39075.09;4991176;28;20034;-67
2023/11/19 05:46:30;;;;;;;36.70;24.95;;;;;;;-145.63;54.40;39110.28;4991196;28;20094;-67
2023/11/19 05:48:56;;;;;;;33.03;21.70;;;;;;;-145.63;53.00;39063.34;4989234;28;20045;-67
2023/11/19 05:51:23;;;;;;;36.13;23.77;;;;;;;-145.63;53.32;39047.72;4993071;28;20041;-67
2023/11/19 05:53:50;;;;;;;32.97;23.05;;;;;;;-145.63;53.34;39037.94;5004065;28;20299;-67
2023/11/19 05:56:21;;;;;;;34.72;23.20;;;;;;;-145.63;53.00;39080.97;5002439;28;20338;-68
2023/11/19 05:58:48;;;;;;;36.83;25.02;;;;;;;-145.63;54.08;39024.25;4995370;28;20022;-67
2023/11/19 06:01:14;;;;;;;37.25;24.58;;;;;;;-145.63;53.81;39026.19;4998692;28;20030;-66
2023/11/19 06:03:42;;;;;;;36.75;26.70;;;;;;;-145.63;53.81;39035.97;4984483;28;20042;-66
2023/11/19 06:06:08;;;;;;;40.08;27.30;;;;;;;-145.63;53.40;39016.44;5002704;28;20045;-67
2023/11/19 06:08:34;;;;;;;39.33;28.52;;;;;;;-145.63;54.99;39014.47;4988145;28;20338;-67
2023/11/19 06:11:01;;;;;;;42.97;30.02;;;;;;;-145.63;53.63;39020.34;4994918;28;20045;-68
2023/11/19 06:13:26;;;;;;;37.70;26.50;;;;;;;-145.63;54.09;39037.94;4996019;28;20467;-67
2023/11/19 06:15:52;;;;;;;39.53;26.38;;;;;;;-145.63;54.11;38989.03;4997040;28;20058;-67
2023/11/19 06:18:19;;;;;;;45.65;30.48;;;;;;;-145.63;54.61;38996.88;5002223;28;20042;-67
2023/11/19 06:20:45;;;;;;;46.05;32.20;;;;;;;-145.63;54.97;39006.66;4986636;28;20029;-67
2023/11/19 06:23:11;;;;;;;46.33;32.67;;;;;;;-145.63;55.01;38961.66;4993573;28;20053;-67
2023/11/19 06:25:38;;;;;;;49.83;37.33;;;;;;;-145.63;54.90;39016.44;4994227;28;20058;-68
2023/11/19 06:28:04;;;;;;;48.83;36.90;;;;;;;-145.63;54.32;38996.88;4986882;28;20329;-65
2023/11/19 06:30:32;;;;;;;52.20;36.20;;;;;;;-145.63;54.24;38998.81;5003647;28;20030;-67
2023/11/19 06:32:58;;;;;;;47.85;37.08;;;;;;;-145.63;55.41;39063.34;5003112;28;20097;-67
2023/11/19 06:35:24;;;;;;;50.67;36.08;;;;;;;-145.63;54.82;39006.66;4989298;28;20046;-67
2023/11/19 06:37:49;;;;;;;56.20;35.80;;;;;;;-145.63;55.32;39028.16;5002342;28;20030;-66
2023/11/19 06:40:16;;;;;;;51.35;34.53;;;;;;;-145.63;55.14;39002.72;5017879;28;20030;-67
2023/11/19 06:42:42;;;;;;;49.85;35.83;;;;;;;-145.63;54.21;39022.28;5003037;28;20027;-67
2023/11/19 06:45:08;;;;;;;53.65;35.33;;;;;;;-145.63;53.80;39006.66;4983764;28;20037;-66
2023/11/19 06:47:33;;;;;;;46.95;33.70;;;;;;;-145.63;54.56;39008.59;4998520;28;20258;-67
2023/11/19 06:49:59;;;;;;;45.70;34.53;;;;;;;-145.63;54.94;38998.81;5002911;28;20242;-67
2023/11/19 06:52:25;;;;;;;46.60;34.03;;;;;;;-145.63;54.36;38985.13;4996064;28;20046;-67
2023/11/19 06:54:50;;;;;;;45.95;33.88;;;;;;;-145.63;54.67;39008.59;4991030;28;20045;-67
2023/11/19 06:57:16;;;;;;;48.80;32.40;;;;;;;-145.63;53.78;38979.28;4997029;28;20026;-67
2023/11/19 06:59:43;;;;;;;46.80;32.80;;;;;;;-145.63;53.95;39037.94;4986937;28;20030;-66
2023/11/19 07:02:09;;;;;;;44.50;30.88;;;;;;;-145.63;54.01;39016.44;4994055;28;20080;-70
2023/11/19 07:04:34;;;;;;;45.40;30.67;;;;;;;-145.63;53.65;39004.69;4998821;28;20038;-68
2023/11/19 07:07:00;;;;;;;41.25;30.13;;;;;;;-145.63;54.70;38985.13;4999067;28;20283;-67
2023/11/19 07:09:26;;;;;;;41.97;30.00;;;;;;;-145.63;54.65;38992.97;4982268;28;20064;-67
2023/11/19 07:11:53;;;;;;;41.22;28.88;;;;;;;-145.63;53.57;39034.03;4987986;28;20026;-66
2023/11/19 07:14:19;;;;;;;35.63;28.35;;;;;;;-145.63;53.65;39047.72;4991382;28;20026;-67
2023/11/19 07:16:46;;;;;;;42.35;28.27;;;;;;;-145.63;53.42;39012.50;5000441;28;20018;-69
2023/11/19 07:19:12;;;;;;;35.75;26.13;;;;;;;-145.63;52.00;39034.03;5002862;28;20415;-69
2023/11/19 07:21:43;;;;;;;37.03;27.55;;;;;;;-145.63;52.95;39020.34;4986456;28;20374;-69
2023/11/19 07:24:12;;;;;;;37.85;26.67;;;;;;;-145.63;51.87;39043.81;4986707;28;20022;-70
2023/11/19 07:26:43;;;;;;;34.00;25.85;;;;;;;-145.63;51.89;39069.22;4989544;28;20350;-68
2023/11/19 07:29:09;;;;;;;35.70;25.23;;;;;;;-145.63;51.92;39004.69;4995673;28;20365;-68
2023/11/19 07:31:35;;;;;;;34.47;25.35;;;;;;;-145.63;52.04;39067.28;5003845;28;20034;-68
2023/11/19 07:34:01;;;;;;;33.10;25.13;;;;;;;-145.63;51.84;39053.59;5004914;28;20058;-68
2023/11/19 07:36:27;;;;;;;36.42;25.80;;;;;;;-145.63;51.50;39016.44;5006213;28;20315;-67
2023/11/19 07:38:52;;;;;;;34.15;25.80;;;;;;;-145.63;51.65;39026.19;5006166;28;20034;-69
2023/11/19 07:41:19;;;;;;;36.08;25.35;;;;;;;-145.63;52.18;38991.00;5000073;28;20038;-67
2023/11/19 07:43:46;;;;;;;35.22;25.38;;;;;;;-145.63;51.89;38996.88;4994801;28;20089;-67
2023/11/19 07:46:13;;;;;;;53.55;28.85;;;;;;;-145.63;51.98;38989.03;5001757;28;21273;-68
2023/11/19 07:48:40;;;;;;;35.80;24.85;;;;;;;-145.63;52.27;39043.81;5000520;28;20069;-67
2023/11/19 07:51:06;;;;;;;34.20;23.90;;;;;;;-145.63;51.89;39028.16;4993751;28;20026;-69
2023/11/19 07:53:32;;;;;;;32.65;24.50;;;;;;;-145.63;52.56;39012.50;5001479;28;20243;-67
2023/11/19 07:55:59;;;;;;;35.53;25.02;;;;;;;-145.63;51.75;39055.53;5003335;28;20026;-67
2023/11/19 07:58:25;;;;;;;31.02;24.00;;;;;;;-145.63;52.01;39024.25;5003242;28;20179;-68
2023/11/19 08:00:52;;;;;;;29.05;21.52;;;;;;;-145.63;51.85;38987.09;5005254;28;20077;-68
2023/11/19 08:03:18;;;;;;;30.98;21.45;;;;;;;-145.63;52.43;39002.72;5001049;28;20022;-68
2023/11/19 08:05:46;;;;;;;32.20;22.67;;;;;;;-145.63;52.39;39041.84;5000759;28;20358;-69
2023/11/19 08:08:12;;;;;;;30.13;22.40;;;;;;;-145.63;51.92;39043.81;5004044;28;20102;-68
2023/11/19 08:10:39;;;;;;;32.85;23.60;;;;;;;-145.63;51.92;38842.38;4998004;28;20031;-68
2023/11/19 08:13:05;;;;;;;31.30;24.00;;;;;;;-145.63;51.31;39035.97;4987676;28;20026;-67
2023/11/19 08:15:31;;;;;;;36.55;24.88;;;;;;;-145.63;51.50;39028.16;5005546;28;20026;-69
2023/11/19 08:17:57;;;;;;;31.60;23.30;;;;;;;-145.63;50.53;39037.94;4994103;28;20238;-67
2023/11/19 08:20:23;;;;;;;31.27;23.08;;;;;;;-145.63;50.17;39071.19;4986489;28;20073;-67
2023/11/19 08:22:49;;;;;;;31.15;22.63;;;;;;;-145.63;49.69;39055.53;4994634;28;20049;-70
2023/11/19 08:25:15;;;;;;;28.02;22.88;;;;;;;-145.63;49.55;39032.06;4993167;28;20053;-67
2023/11/19 08:27:40;;;;;;;31.67;22.20;;;;;;;-145.63;48.98;39030.13;5003751;28;20018;-68
2023/11/19 08:30:07;;;;;;;31.60;21.92;;;;;;;-145.63;48.57;38979.28;4986686;28;20104;-68
2023/11/19 08:32:33;;;;;;;28.30;20.08;;;;;;;-145.63;49.29;39008.59;4998846;28;20092;-68
2023/11/19 08:34:58;;;;;;;27.77;21.23;;;;;;;-145.63;49.55;39028.16;5003830;28;20050;-69
2023/11/19 08:37:24;;;;;;;28.27;21.90;;;;;;;-145.63;49.47;39030.13;5000530;28;20038;-68
2023/11/19 08:39:50;;;;;;;28.98;21.45;;;;;;;-145.63;48.25;39010.56;4985981;28;20034;-68
2023/11/19 08:42:17;;;;;;;26.65;21.67;;;;;;;-145.63;48.98;39080.97;5005153;28;20030;-68
2023/11/19 08:44:44;;;;;;;27.45;20.98;;;;;;;-145.63;48.39;39035.97;4994366;28;20026;-70
2023/11/19 08:47:11;;;;;;;23.15;18.40;;;;;;;-145.63;49.04;39037.94;5005027;28;20030;-68
2023/11/19 08:49:37;;;;;;;23.85;19.83;;;;;;;-145.63;49.41;39010.56;5002786;28;20033;-68
2023/11/19 08:52:02;;;;;;;23.88;19.20;;;;;;;-145.63;48.67;39002.72;5001240;28;20033;-68
2023/11/19 08:54:28;;;;;;;21.65;17.95;;;;;;;-145.63;48.80;39039.88;4985864;28;20378;-68
2023/11/19 08:56:54;;;;;;;26.58;18.90;;;;;;;-145.63;47.77;39051.63;4991357;28;20038;-68
2023/11/19 08:59:19;;;;;;;21.52;17.10;;;;;;;-145.63;47.77;39032.06;4989745;28;20112;-68
2023/11/19 09:01:45;;;;;;;25.20;17.77;;;;;;;-145.63;47.32;39051.63;4992724;28;20026;-70
2023/11/19 09:04:11;;;;;;;22.17;16.17;;;;;;;-145.63;46.77;39008.59;4995762;28;20031;-71
2023/11/19 09:06:37;;;;;;;19.85;16.80;;;;;;;-145.63;46.93;39039.88;5002567;28;20026;-69
2023/11/19 09:09:05;;;;;;;21.30;16.40;;;;;;;-145.63;46.73;39041.84;4986875;28;20031;-70
2023/11/19 09:11:31;;;;;;;23.02;16.15;;;;;;;-145.63;46.22;39055.53;4998856;28;20022;-68
2023/11/19 09:13:57;;;;;;;24.00;15.82;;;;;;;-145.63;47.03;39026.19;4995540;28;20049;-68
2023/11/19 09:16:24;;;;;;;19.85;15.35;;;;;;;-145.63;47.45;39030.13;5003081;28;20211;-69
2023/11/19 09:18:50;;;;;;;20.27;14.77;;;;;;;-145.63;47.87;39063.34;5004617;28;20105;-67
2023/11/19 09:21:15;;;;;;;19.02;15.15;;;;;;;-145.63;47.13;39075.09;4985012;28;20038;-69
2023/11/19 09:23:41;;;;;;;21.67;15.02;;;;;;;-145.63;46.85;39065.31;4996519;28;20047;-69
2023/11/19 09:26:10;;;;;;;19.58;13.70;;;;;;;-145.63;45.67;39053.59;4994691;28;20069;-67
2023/11/19 09:28:36;;;;;;;18.20;13.55;;;;;;;-145.63;44.94;39024.25;5004690;28;20022;-68
2023/11/19 09:31:05;;;;;;;16.75;12.20;;;;;;;-145.63;44.56;39049.66;5003762;28;20203;-69
2023/11/19 09:33:31;;;;;;;18.00;14.10;;;;;;;-145.63;45.79;39063.34;5004259;28;20049;-67
2023/11/19 09:35:57;;;;;;;18.55;13.57;;;;;;;-145.63;45.24;39053.59;5003883;28;20034;-68
2023/11/19 09:38:23;;;;;;;20.15;13.80;;;;;;;-145.63;45.11;39079.00;5000985;28;20037;-68
2023/11/19 09:40:49;;;;;;;20.52;14.50;;;;;;;-145.63;44.82;39071.19;4985548;28;20030;-67
2023/11/19 09:43:15;;;;;;;19.20;14.65;;;;;;;-145.63;45.49;39077.06;5001469;28;20330;-67
2023/11/19 09:45:51;;;;;;;22.20;14.93;;;;;;;-145.63;44.85;39090.75;4989336;28;20041;-68
2023/11/19 09:48:18;;;;;;;22.23;15.43;;;;;;;-145.63;45.31;39051.63;4997449;28;20390;-68
2023/11/19 09:50:48;;;;;;;20.05;14.60;;;;;;;-145.63;45.97;39077.06;5004586;28;20080;-66
2023/11/19 09:53:15;;;;;;;32.88;21.80;;;;;;;-145.63;45.81;39080.97;5008352;28;20049;-68
2023/11/19 09:55:41;;;;;;;25.10;17.42;;;;;;;-145.63;45.74;39075.09;4995937;28;20082;-71
2023/11/19 09:58:07;;;;;;;20.92;15.02;;;;;;;-145.63;44.80;39073.13;4986259;28;20046;-69
2023/11/19 10:00:33;;;;;;;20.08;15.95;;;;;;;-145.63;45.21;38996.88;4994167;28;20018;-69
2023/11/19 10:03:00;;;;;;;20.13;14.88;;;;;;;-145.63;44.87;39063.34;4991409;28;20053;-68
2023/11/19 10:05:26;;;;;;;20.80;14.10;;;;;;;-145.63;44.91;39057.50;4993000;28;20064;-70
2023/11/19 10:07:55;;;;;;;21.00;14.32;;;;;;;-145.63;45.20;39067.28;4996395;28;20094;-69
2023/11/19 10:10:21;;;;;;;19.90;14.85;;;;;;;-145.63;45.41;39084.88;4987745;28;20106;-70
2023/11/19 10:12:47;;;;;;;19.42;13.63;;;;;;;-145.63;45.01;39090.75;5003934;28;20262;-69
2023/11/19 10:15:25;;;;;;;20.05;14.13;;;;;;;-145.63;45.37;39094.66;4992947;28;20026;-69
2023/11/19 10:17:51;;;;;;;18.00;13.73;;;;;;;-145.63;45.18;39133.75;4987351;28;20031;-68
2023/11/19 10:20:17;;;;;;;17.83;13.45;;;;;;;-145.63;44.43;39071.19;4994666;28;20086;-68
2023/11/19 10:22:43;;;;;;;17.48;12.75;;;;;;;-145.63;44.44;39077.06;4996625;28;20027;-69
2023/11/19 10:25:29;;;;;;;21.25;14.98;;;;;;;-145.63;45.02;39082.91;4992543;28;20345;-69
2023/11/19 10:27:56;;;;;;;23.05;14.35;;;;;;;-145.63;44.77;39092.69;4983439;28;20046;-67
2023/11/19 10:30:27;;;;;;;19.15;13.38;;;;;;;-145.63;44.25;39110.28;4984017;28;20370;-69
2023/11/19 10:33:03;;;;;;;17.98;13.30;;;;;;;-145.63;44.06;39084.88;4986364;28;20035;-69
2023/11/19 10:35:29;;;;;;;16.80;12.98;;;;;;;-145.63;43.69;39102.47;4996285;28;20041;-68
2023/11/19 10:37:54;;;;;;;18.90;13.30;;;;;;;-145.63;44.63;39080.97;4995648;28;20027;-69
2023/11/19 10:40:20;;;;;;;20.30;13.13;;;;;;;-145.63;45.05;39073.13;4986946;28;20068;-70
2023/11/19 10:42:46;;;;;;;18.48;12.88;;;;;;;-145.63;44.36;39073.13;4983896;28;20034;-68
2023/11/19 10:45:24;;;;;;;19.50;13.07;;;;;;;-145.63;45.63;39026.19;4984399;28;20058;-68
2023/11/19 10:47:51;;;;;;;17.70;12.13;;;;;;;-145.63;46.42;39067.28;4987890;28;20054;-69
2023/11/19 10:50:17;;;;;;;18.70;12.68;;;;;;;-145.63;46.39;39059.44;5000728;28;20030;-68
2023/11/19 10:52:45;;;;;;;18.23;12.98;;;;;;;-145.63;47.11;39080.97;5002958;28;20081;-68
2023/11/19 10:55:14;;;;;;;20.20;12.82;;;;;;;-145.63;45.94;39075.09;5002971;28;20026;-68
2023/11/19 10:57:44;;;;;;;16.67;12.75;;;;;;;-145.63;46.17;38249.91;4990439;28;20030;-68
2023/11/19 11:00:14;;;;;;;20.08;13.45;;;;;;;-145.63;44.88;39051.63;4989542;28;20196;-68